Terminal Aerodrome Forecast
Issued by NWS

Home | Current Version | Previous Version | Text Only | Print | Product List | Glossary On
Versions: 1 2 3 4 5 6 7 8 9 10 11 12 13 14 15 16 17 18 19
000
FTUS42 KGSP 291741
TAFGMU
TAF
KGMU 291741Z 2918/3018 14003KT P6SM VCTS BKN035CB
      TEMPO 2919/2922 VRB10G20KT 3SM TSRA OVC025CB
     FM292200 00000KT P6SM BKN040
     FM300200 00000KT P6SM SCT060
     FM300900 00000KT 5SM BR SCT060
     FM301600 00000KT P6SM SCT050=

USA.gov is the U.S. government's official web portal to all federal, state and local government web resources and services.